createdAt,value
2022-11-15T00:01:21.693Z,6.90
2022-11-15T00:04:01.958Z,7.00
2022-11-15T00:06:29.106Z,7.10
2022-11-15T00:09:00.303Z,7.20
2022-11-15T00:11:29.933Z,7.30
2022-11-15T00:14:06.379Z,7.40
2022-11-15T00:16:33.858Z,7.40
2022-11-15T00:19:03.355Z,7.50
2022-11-15T00:21:32.654Z,7.50
2022-11-15T00:24:06.472Z,7.60
2022-11-15T00:26:35.752Z,7.70
2022-11-15T00:29:04.105Z,7.70
2022-11-15T00:31:33.840Z,7.70
2022-11-15T00:34:03.649Z,7.70
2022-11-15T00:36:35.916Z,7.70
2022-11-15T00:39:07.437Z,7.70
2022-11-15T00:41:37.954Z,7.80
2022-11-15T00:44:07.333Z,7.80
2022-11-15T00:46:37.600Z,7.80
2022-11-15T00:49:05.720Z,7.80
2022-11-15T00:51:32.715Z,7.80
2022-11-15T00:54:09.679Z,7.80
2022-11-15T00:56:45.443Z,7.80
2022-11-15T00:59:15.774Z,7.70
2022-11-15T01:01:43.890Z,7.70
2022-11-15T01:04:22.486Z,7.60
2022-11-15T01:06:49.546Z,7.60
2022-11-15T01:09:18.019Z,7.60
2022-11-15T01:11:46.161Z,7.60
2022-11-15T01:14:24.189Z,7.50
2022-11-15T01:16:56.704Z,7.50
2022-11-15T01:19:27.306Z,7.50
2022-11-15T01:22:00.345Z,7.40
2022-11-15T01:24:28.780Z,7.40
2022-11-15T01:26:59.511Z,7.50
2022-11-15T01:29:30.435Z,7.50
2022-11-15T01:32:07.839Z,7.50
2022-11-15T01:34:46.929Z,7.60
2022-11-15T01:37:17.395Z,7.70
2022-11-15T01:39:56.019Z,7.70
2022-11-15T01:42:32.035Z,7.70
2022-11-15T01:45:02.225Z,7.70
2022-11-15T01:47:41.540Z,7.70
2022-11-15T01:50:17.304Z,7.80
2022-11-15T01:52:46.024Z,7.80
2022-11-15T01:55:28.575Z,7.80
2022-11-15T01:58:06.459Z,7.90
2022-11-15T02:00:36.323Z,7.90
2022-11-15T02:03:06.775Z,7.90
2022-11-15T02:08:22.956Z,7.90
2022-11-15T02:10:53.235Z,7.90
2022-11-15T02:13:21.994Z,7.80
2022-11-15T02:16:16.626Z,7.80
2022-11-15T02:19:01.081Z,7.80
2022-11-15T02:21:57.314Z,7.90
2022-11-15T02:24:56.369Z,7.90
2022-11-15T02:28:01.660Z,8.00
2022-11-15T02:31:01.516Z,8.00
2022-11-15T03:17:42.454Z,4.00
2022-11-15T03:20:14.016Z,2.30
2022-11-15T03:31:50.747Z,0.40
2022-11-15T03:34:30.554Z,0.20
2022-11-15T03:55:06.260Z,0.90
2022-11-15T03:57:35.545Z,1.80
2022-11-15T04:00:04.454Z,2.50
2022-11-15T04:02:31.600Z,3.10
2022-11-15T04:04:59.876Z,3.60
2022-11-15T04:07:29.421Z,4.10
2022-11-15T04:10:07.510Z,4.50
2022-11-15T04:15:22.680Z,5.20
2022-11-15T04:18:06.910Z,5.50
2022-11-15T04:20:52.914Z,5.70
2022-11-15T04:23:41.425Z,5.90
2022-11-15T04:26:18.849Z,6.10
2022-11-15T04:29:06.335Z,6.20
2022-11-15T04:31:33.470Z,6.30
2022-11-15T04:34:01.835Z,6.50
2022-11-15T04:36:47.355Z,6.50
2022-11-15T04:39:15.084Z,6.60
2022-11-15T04:41:43.760Z,6.70
2022-11-15T04:44:15.440Z,6.80
2022-11-15T04:46:43.551Z,6.80
2022-11-15T04:49:11.680Z,6.90
2022-11-15T04:54:20.553Z,6.90
2022-11-15T04:56:47.849Z,7.00
2022-11-15T04:59:14.979Z,7.00
2022-11-15T05:01:45.057Z,7.00
2022-11-15T05:04:22.561Z,7.00
2022-11-15T05:06:51.356Z,7.00
2022-11-15T05:09:21.198Z,7.10
2022-11-15T05:11:49.713Z,7.10
2022-11-15T05:14:21.779Z,7.10
2022-11-15T05:17:12.434Z,7.20
2022-11-15T05:19:39.838Z,7.20
2022-11-15T05:22:09.665Z,7.30
2022-11-15T05:24:36.675Z,7.30
2022-11-15T05:27:04.853Z,7.30
2022-11-15T05:29:31.918Z,7.40
2022-11-15T05:31:59.074Z,7.40
2022-11-15T05:34:28.069Z,7.40
2022-11-15T05:36:55.209Z,7.40
2022-11-15T05:39:22.489Z,7.40
2022-11-15T05:42:04.999Z,7.40
2022-11-15T05:44:46.250Z,7.50
2022-11-15T05:47:20.605Z,7.50
2022-11-15T05:49:50.479Z,7.50
2022-11-15T05:52:23.059Z,7.50
2022-11-15T05:54:55.054Z,7.50
2022-11-15T05:57:22.791Z,7.50
2022-11-15T05:59:50.000Z,7.50
2022-11-15T06:02:19.423Z,7.60
2022-11-15T06:04:51.785Z,7.60
2022-11-15T06:07:18.841Z,7.60
2022-11-15T06:09:46.905Z,7.50
2022-11-15T06:12:14.551Z,7.50
2022-11-15T06:14:47.116Z,7.50
2022-11-15T06:17:14.784Z,7.60
2022-11-15T06:19:44.658Z,7.50
2022-11-15T06:22:13.092Z,7.60
2022-11-15T06:24:43.370Z,7.60
2022-11-15T06:27:15.109Z,7.60
2022-11-15T06:29:42.512Z,7.70
2022-11-15T06:32:13.170Z,7.70
2022-11-15T06:34:40.231Z,7.70
2022-11-15T06:37:09.634Z,7.60
2022-11-15T06:39:42.574Z,7.60
2022-11-15T06:42:12.656Z,7.70
2022-11-15T06:44:41.042Z,7.70
2022-11-15T06:47:08.130Z,7.70
2022-11-15T06:49:36.751Z,7.80
2022-11-15T06:52:03.841Z,7.80
2022-11-15T06:54:31.476Z,7.80
2022-11-15T06:56:59.143Z,7.80
2022-11-15T06:59:26.501Z,7.90
2022-11-15T07:01:54.960Z,7.90
2022-11-15T07:04:22.616Z,7.80
2022-11-15T07:06:49.703Z,7.70
2022-11-15T07:09:22.122Z,7.50
2022-11-15T07:11:49.140Z,7.50
2022-11-15T07:14:16.195Z,7.60
2022-11-15T07:16:45.820Z,7.60
2022-11-15T07:19:14.461Z,7.50
2022-11-15T07:21:42.467Z,7.40
2022-11-15T07:24:09.546Z,7.40
2022-11-15T07:26:37.199Z,7.40
2022-11-15T07:29:06.605Z,7.40
2022-11-15T07:31:34.441Z,7.50
2022-11-15T07:34:01.980Z,7.50
2022-11-15T07:36:29.140Z,7.60
2022-11-15T07:38:56.231Z,7.50
2022-11-15T07:41:25.882Z,7.50
2022-11-15T07:43:54.281Z,7.60
2022-11-15T07:46:26.402Z,7.60
2022-11-15T07:48:54.075Z,7.70
2022-11-15T07:51:22.283Z,7.70
2022-11-15T07:53:49.822Z,7.80
2022-11-15T07:56:20.856Z,7.70
2022-11-15T07:58:49.020Z,7.60
2022-11-15T08:01:17.891Z,7.70
2022-11-15T08:03:44.978Z,7.70
2022-11-15T08:06:14.665Z,7.60
2022-11-15T08:08:43.241Z,7.50
2022-11-15T08:11:12.091Z,7.60
2022-11-15T08:13:40.620Z,7.70
2022-11-15T08:16:25.045Z,7.90
2022-11-15T08:18:55.236Z,8.00
2022-11-15T08:21:36.277Z,8.00
2022-11-15T08:24:11.819Z,8.10
2022-11-15T08:26:41.341Z,8.10
2022-11-15T08:29:13.698Z,8.20
2022-11-15T08:31:44.521Z,8.20
2022-11-15T08:34:12.132Z,8.30
2022-11-15T08:36:45.995Z,8.30
2022-11-15T08:39:15.791Z,8.40
2022-11-15T08:41:46.257Z,8.40
2022-11-15T08:44:14.355Z,8.40
2022-11-15T08:46:42.656Z,8.50
2022-11-15T08:49:12.717Z,8.50
2022-11-15T08:51:50.621Z,8.50
2022-11-15T08:54:19.159Z,8.50
2022-11-15T08:56:47.623Z,8.60
2022-11-15T08:59:16.462Z,8.60
2022-11-15T09:01:47.492Z,8.60
2022-11-15T09:04:17.007Z,8.70
2022-11-15T09:06:46.835Z,8.70
2022-11-15T09:09:17.077Z,8.80
2022-11-15T09:11:47.743Z,8.80
2022-11-15T09:14:18.028Z,8.80
2022-11-15T09:16:47.686Z,8.80
2022-11-15T09:19:20.543Z,8.70
2022-11-15T09:21:50.975Z,8.70
2022-11-15T09:24:23.816Z,8.70
2022-11-15T09:26:53.216Z,8.70
2022-11-15T09:29:20.283Z,8.70
2022-11-15T09:31:49.693Z,8.80
2022-11-15T09:34:26.696Z,8.80
2022-11-15T09:37:05.138Z,8.90
2022-11-15T09:39:33.391Z,8.90
2022-11-15T09:42:42.696Z,9.00
2022-11-15T09:45:59.877Z,9.00
2022-11-15T09:49:02.835Z,9.00
2022-11-15T09:51:59.701Z,9.00
2022-11-15T09:54:55.731Z,9.00
2022-11-15T09:57:44.893Z,9.00
2022-11-15T10:00:48.195Z,9.10
2022-11-15T10:03:44.239Z,9.10
2022-11-15T10:06:28.985Z,9.10
2022-11-15T10:09:22.544Z,9.10
2022-11-15T10:11:59.966Z,9.10
2022-11-15T10:14:32.211Z,9.20
2022-11-15T10:17:39.251Z,9.20
2022-11-15T10:20:29.121Z,9.20
2022-11-15T10:23:10.751Z,9.30
2022-11-15T10:25:41.096Z,9.40
2022-11-15T10:28:38.201Z,9.50
2022-11-15T10:31:29.576Z,9.60
2022-11-15T10:34:36.516Z,9.60
2022-11-15T10:37:14.081Z,9.60
2022-11-15T10:39:43.907Z,9.60
2022-11-15T10:42:38.317Z,9.60
2022-11-15T10:45:33.387Z,9.70
2022-11-15T10:48:18.639Z,9.70
2022-11-15T10:50:50.303Z,9.70
2022-11-15T10:53:27.896Z,9.70
2022-11-15T10:56:03.070Z,9.70
2022-11-15T10:58:42.990Z,9.80
2022-11-15T11:01:20.599Z,9.80
2022-11-15T11:04:14.755Z,9.80
2022-11-15T11:07:06.814Z,9.70
2022-11-15T11:09:44.616Z,9.70
2022-11-15T11:12:13.355Z,9.70
2022-11-15T11:14:42.617Z,9.70
2022-11-15T11:17:47.221Z,9.70
2022-11-15T11:20:39.208Z,9.80
2022-11-15T11:23:40.646Z,9.80
2022-11-15T11:26:38.511Z,9.80
2022-11-15T11:29:43.437Z,9.90
2022-11-15T11:32:44.645Z,10.00
2022-11-15T11:35:39.001Z,10.10
2022-11-15T11:38:36.051Z,10.10
2022-11-15T11:41:15.430Z,10.20
2022-11-15T11:44:09.285Z,10.20
2022-11-15T11:47:38.225Z,10.30
2022-11-15T11:50:28.562Z,10.20
2022-11-15T11:53:19.440Z,10.30
2022-11-15T11:55:57.116Z,10.30
2022-11-15T11:58:58.816Z,10.20
2022-11-15T12:01:42.107Z,10.30
2022-11-15T12:04:18.563Z,10.40
2022-11-15T12:07:17.251Z,10.40
2022-11-15T12:10:31.299Z,10.40
2022-11-15T12:13:20.737Z,10.30
2022-11-15T12:16:19.567Z,10.20
2022-11-15T12:18:52.774Z,10.10
2022-11-15T12:21:34.725Z,10.00
2022-11-15T12:24:29.876Z,10.00
2022-11-15T12:27:46.041Z,10.00
2022-11-15T12:30:20.510Z,10.10
2022-11-15T12:33:01.929Z,10.10
2022-11-15T12:35:45.467Z,10.00
2022-11-15T12:38:13.983Z,10.00
2022-11-15T12:41:21.992Z,9.90
2022-11-15T12:43:53.330Z,9.90
2022-11-15T12:46:44.406Z,9.90
2022-11-15T12:49:38.630Z,9.90
2022-11-15T12:52:10.115Z,9.80
2022-11-15T12:54:47.026Z,9.80
2022-11-15T12:57:34.957Z,9.80
2022-11-15T13:00:29.976Z,9.70
2022-11-15T13:03:22.353Z,9.70
2022-11-15T13:05:58.865Z,9.70
2022-11-15T13:08:49.831Z,9.60
2022-11-15T13:11:49.525Z,9.60
2022-11-15T13:14:58.806Z,9.60
2022-11-15T13:17:48.700Z,9.50
2022-11-15T13:20:18.801Z,9.50
2022-11-15T13:23:00.314Z,9.50
2022-11-15T13:26:14.769Z,9.50
2022-11-15T13:28:53.031Z,9.50
2022-11-15T13:31:39.655Z,9.40
2022-11-15T13:34:51.472Z,9.40
2022-11-15T13:37:32.647Z,9.40
2022-11-15T13:40:36.628Z,9.40
2022-11-15T13:43:54.847Z,9.30
2022-11-15T13:46:26.842Z,9.30
2022-11-15T13:49:13.389Z,9.30
2022-11-15T13:51:58.562Z,9.30
2022-11-15T13:54:49.174Z,9.30
2022-11-15T13:57:35.691Z,9.30
2022-11-15T14:00:28.801Z,9.30
2022-11-15T14:03:05.763Z,9.30
2022-11-15T14:05:34.121Z,9.20
2022-11-15T14:08:18.601Z,9.10
2022-11-15T14:10:49.236Z,9.10
2022-11-15T14:13:34.564Z,9.10
2022-11-15T14:16:40.725Z,9.10
2022-11-15T14:19:16.850Z,9.10
2022-11-15T14:22:24.085Z,9.00
2022-11-15T14:25:24.586Z,9.00
2022-11-15T14:28:13.780Z,9.00
2022-11-15T14:30:48.150Z,9.00
2022-11-15T14:33:38.098Z,8.90
2022-11-15T14:36:18.535Z,8.90
2022-11-15T14:38:48.555Z,8.90
2022-11-15T14:41:26.921Z,8.80
2022-11-15T14:59:07.164Z,8.40
2022-11-15T15:01:37.131Z,7.00
2022-11-15T15:04:07.090Z,5.50
2022-11-15T15:06:34.479Z,4.50
2022-11-15T15:09:03.551Z,3.80
2022-11-15T15:11:33.815Z,3.40
2022-11-15T15:14:03.749Z,3.40
2022-11-15T15:16:33.633Z,3.40
2022-11-15T15:19:05.947Z,3.30
2022-11-15T15:21:44.905Z,4.00
2022-11-15T15:24:19.407Z,4.70
2022-11-15T15:26:48.443Z,5.40
2022-11-15T15:29:17.398Z,5.80
2022-11-15T15:31:44.742Z,6.10
2022-11-15T15:34:16.810Z,6.40
2022-11-15T15:36:48.581Z,6.60
2022-11-15T15:39:17.152Z,6.90
2022-11-15T15:41:45.271Z,7.00
2022-11-15T15:44:14.921Z,7.20
2022-11-15T15:46:52.057Z,7.30
2022-11-15T15:49:22.207Z,7.30
2022-11-15T15:51:53.092Z,7.40
2022-11-15T15:54:23.651Z,7.60
2022-11-15T15:56:56.296Z,7.60
2022-11-15T15:59:25.652Z,7.60
2022-11-15T16:01:54.138Z,7.70
2022-11-15T16:04:24.948Z,7.70
2022-11-15T16:06:56.520Z,7.80
2022-11-15T16:09:43.610Z,7.70
2022-11-15T16:12:13.156Z,7.70
2022-11-15T16:14:43.632Z,7.70
2022-11-15T16:17:22.172Z,7.60
2022-11-15T16:19:51.690Z,7.70
2022-11-15T16:22:28.453Z,7.80
2022-11-15T16:25:04.930Z,7.80
2022-11-15T16:27:33.639Z,7.80
2022-11-15T16:30:06.291Z,7.90
2022-11-15T16:35:18.011Z,8.00
2022-11-15T16:37:56.132Z,8.00
2022-11-15T16:40:33.231Z,7.90
2022-11-15T16:43:04.170Z,8.00
2022-11-15T16:45:37.847Z,8.00
2022-11-15T16:48:22.896Z,7.90
2022-11-15T16:50:49.902Z,7.90
2022-11-15T16:53:18.476Z,7.90
2022-11-15T16:55:46.791Z,7.90
2022-11-15T16:58:15.137Z,7.90
2022-11-15T17:00:44.721Z,7.90
2022-11-15T17:03:14.687Z,8.00
2022-11-15T17:05:44.586Z,8.00
2022-11-15T17:08:15.491Z,7.90
2022-11-15T17:10:47.274Z,7.80
2022-11-15T17:13:24.398Z,7.70
2022-11-15T17:16:04.757Z,7.70
2022-11-15T17:18:38.507Z,7.70
2022-11-15T17:21:33.822Z,7.70
2022-11-15T17:24:05.971Z,7.80
2022-11-15T17:26:40.351Z,7.70
2022-11-15T17:29:09.890Z,7.80
2022-11-15T17:31:39.114Z,7.80
2022-11-15T17:34:17.726Z,7.80
2022-11-15T17:36:47.850Z,7.80
2022-11-15T17:39:16.490Z,7.90
2022-11-15T17:41:44.773Z,7.90
2022-11-15T17:44:13.552Z,7.90
2022-11-15T17:46:51.087Z,7.90
2022-11-15T17:49:19.662Z,7.90
2022-11-15T17:51:50.247Z,7.90
2022-11-15T17:54:18.887Z,8.00
2022-11-15T17:56:49.208Z,8.00
2022-11-15T17:59:21.409Z,8.00
2022-11-15T18:01:54.835Z,8.00
2022-11-15T18:04:31.432Z,7.90
2022-11-15T18:07:00.774Z,7.90
2022-11-15T18:09:29.212Z,7.90
2022-11-15T18:12:06.651Z,7.90
2022-11-15T18:14:36.729Z,7.90
2022-11-15T18:17:13.841Z,7.90
2022-11-15T18:19:44.615Z,7.90
2022-11-15T18:22:12.012Z,7.80
2022-11-15T18:24:41.722Z,7.80
2022-11-15T18:27:10.172Z,7.90
2022-11-15T18:29:45.991Z,7.90
2022-11-15T18:32:17.843Z,7.90
2022-11-15T18:34:44.909Z,7.90
2022-11-15T18:37:20.047Z,8.00
2022-11-15T18:42:39.073Z,8.00
2022-11-15T18:45:14.275Z,8.00
2022-11-15T18:47:41.315Z,8.00
2022-11-15T18:50:09.626Z,8.00
2022-11-15T18:52:39.476Z,8.00
2022-11-15T18:55:16.980Z,8.00
2022-11-15T18:57:44.186Z,8.10
2022-11-15T19:00:15.531Z,8.10
2022-11-15T19:02:45.349Z,8.00
2022-11-15T19:05:15.807Z,8.00
2022-11-15T19:07:55.252Z,8.00
2022-11-15T19:10:33.787Z,8.00
2022-11-15T19:13:04.312Z,8.00
2022-11-15T19:15:34.312Z,8.00
2022-11-15T19:18:04.478Z,8.00
2022-11-15T19:20:48.886Z,8.10
2022-11-15T19:23:25.876Z,8.00
2022-11-15T19:26:01.211Z,8.10
2022-11-15T19:28:31.445Z,8.00
2022-11-15T19:31:25.930Z,8.00
2022-11-15T19:33:55.636Z,8.00
2022-11-15T19:36:33.066Z,8.10
2022-11-15T19:39:08.631Z,8.10
2022-11-15T19:41:39.193Z,8.10
2022-11-15T19:44:09.492Z,8.10
2022-11-15T19:46:38.867Z,8.10
2022-11-15T19:49:11.204Z,8.10
2022-11-15T19:51:49.067Z,8.10
2022-11-15T19:54:17.971Z,8.10
2022-11-15T19:56:49.251Z,8.10
2022-11-15T19:59:17.736Z,8.10
2022-11-15T20:01:47.506Z,8.00
2022-11-15T20:04:15.999Z,8.00
2022-11-15T20:06:45.631Z,8.00
2022-11-15T20:09:14.595Z,8.00
2022-11-15T20:11:44.216Z,8.00
2022-11-15T20:14:22.221Z,8.00
2022-11-15T20:16:56.231Z,8.00
2022-11-15T20:19:26.215Z,8.00
2022-11-15T20:21:55.911Z,8.00
2022-11-15T20:24:24.970Z,8.00
2022-11-15T20:26:54.354Z,8.10
2022-11-15T20:29:31.886Z,8.10
2022-11-15T20:32:00.686Z,8.20
2022-11-15T20:34:29.286Z,8.10
2022-11-15T20:39:42.177Z,8.10
2022-11-15T20:42:13.366Z,8.10
2022-11-15T20:44:41.655Z,8.10
2022-11-15T20:47:10.146Z,8.10
2022-11-15T20:49:45.891Z,8.10
2022-11-15T20:52:14.087Z,8.10
2022-11-15T20:54:44.767Z,8.10
2022-11-15T20:57:12.432Z,8.10
2022-11-15T20:59:40.686Z,8.10
2022-11-15T21:02:09.125Z,8.10
2022-11-15T21:04:37.490Z,8.20
2022-11-15T21:07:04.940Z,8.20
2022-11-15T21:09:52.617Z,8.20
2022-11-15T21:12:21.911Z,8.20
2022-11-15T21:14:55.568Z,6.30
2022-11-15T21:17:26.115Z,4.30
2022-11-15T21:19:54.652Z,2.90
2022-11-15T21:22:26.210Z,1.90
2022-11-15T21:24:59.970Z,1.30
2022-11-15T21:27:28.307Z,0.90
2022-11-15T21:30:04.370Z,0.70
2022-11-15T21:32:41.740Z,0.40
2022-11-15T21:35:11.707Z,0.20
2022-11-15T21:37:41.491Z,0.00
2022-11-15T21:40:13.370Z,-0.10
2022-11-15T21:42:49.556Z,-0.20
2022-11-15T21:45:20.127Z,-0.30
2022-11-15T21:47:50.527Z,-0.40
2022-11-15T21:50:17.715Z,-0.50
2022-11-15T21:52:55.095Z,-0.60
2022-11-15T21:55:23.247Z,-0.60
2022-11-15T21:57:50.556Z,-0.60
2022-11-15T22:00:37.105Z,-0.60
2022-11-15T22:03:05.088Z,-0.50
2022-11-15T22:05:35.511Z,0.40
2022-11-15T22:08:05.147Z,1.20
2022-11-15T22:10:33.352Z,1.90
2022-11-15T22:13:04.022Z,2.50
2022-11-15T22:15:35.171Z,3.20
2022-11-15T22:18:12.126Z,3.70
2022-11-15T22:20:45.531Z,4.30
2022-11-15T22:23:23.721Z,4.70
2022-11-15T22:25:52.865Z,5.00
2022-11-15T22:28:21.953Z,5.20
2022-11-15T22:30:54.891Z,3.60
2022-11-15T22:33:26.313Z,2.50
2022-11-15T22:36:05.288Z,1.80
2022-11-15T22:38:35.511Z,1.40
2022-11-15T22:41:06.893Z,1.40
2022-11-15T22:43:35.957Z,1.40
2022-11-15T22:46:05.726Z,1.40
2022-11-15T22:48:38.555Z,1.40
2022-11-15T22:51:16.871Z,1.40
2022-11-15T22:53:44.932Z,1.40
2022-11-15T22:56:19.048Z,1.50
2022-11-15T22:58:51.571Z,1.50
2022-11-15T23:01:22.668Z,1.60
2022-11-15T23:04:00.907Z,1.70
2022-11-15T23:06:29.816Z,2.10
2022-11-15T23:08:58.072Z,2.80
2022-11-15T23:11:46.116Z,3.40
2022-11-15T23:14:23.851Z,4.00
2022-11-15T23:16:53.386Z,4.50
2022-11-15T23:19:22.036Z,4.90
2022-11-15T23:22:11.157Z,5.20
2022-11-15T23:24:41.591Z,5.50
2022-11-15T23:27:18.671Z,5.70
2022-11-15T23:30:07.226Z,5.80
2022-11-15T23:32:54.187Z,5.90
2022-11-15T23:35:22.857Z,6.00
2022-11-15T23:37:58.986Z,6.10
2022-11-15T23:40:36.091Z,6.20
2022-11-15T23:43:05.596Z,6.30
2022-11-15T23:45:35.332Z,6.30
2022-11-15T23:48:11.267Z,6.30
2022-11-15T23:50:48.414Z,6.40
2022-11-15T23:53:29.088Z,6.50
2022-11-15T23:56:15.954Z,6.60
2022-11-15T23:58:47.411Z,6.60
